Eilsum — V2AB8 — position and weather

sailwx.info

Track history (hours):
 
Tides and Currents Weather Stations Pressure Air Temp Water Temp Dewpoint Dewpoint Depression Visibility Wind Speed Wind Dir Waves Ship Positions

Eilsum

Last reported at 2017-Dec-15 01:00 UTC. Time now 2017-Dec-17 06:38 UTC.
Position N 37°30' W 000°10'.

Length 81 m; draft 3.3 m.

Type: Cargo ship. MMSI: 304010439.

Date/timePositionNaut miles runAvg speedWind from/ knotsBaromVisibWave heightAir tempDewpointWater temp
2017-Dec-15 01:00N 37°30' W 000°10'4 7.5
2017-Dec-15 00:30N 37°30' W 000°15'35 0.8
2017-Dec-13 06:16N 37°34' W 000°59'2 3.2
2017-Dec-13 05:45N 37°33' W 000°59'2 4.6
2017-Dec-13 05:23N 37°31' W 000°58'2 5.7
2017-Dec-13 05:00N 37°32' W 000°55'3 5.7
2017-Dec-13 04:29N 37°32' W 000°51'3 5.5
2017-Dec-13 04:00N 37°32' W 000°48'3 5.9
2017-Dec-13 03:30N 37°32' W 000°44'3 5.3
2017-Dec-13 03:00N 37°32' W 000°41'3 5.8
2017-Dec-13 02:28N 37°33' W 000°37'3 5.8
2017-Dec-13 02:00N 37°34' W 000°34'3 6.3
2017-Dec-13 01:30N 37°36' W 000°31'3 6.2
2017-Dec-13 01:00N 37°39' W 000°29'3 6.2
2017-Dec-13 00:30N 37°42' W 000°27'3 6.1
2017-Dec-13 00:00N 37°44' W 000°25'186 6.0
2017-Dec-11 17:01N 39°47' E 002°34'1 3.4
2017-Dec-11 16:38N 39°47' E 002°36'1 3.5
2017-Dec-11 16:24N 39°48' E 002°37'1 3.2
2017-Dec-11 16:00N 39°49' E 002°38'2 3.3
2017-Dec-11 15:30N 39°50' E 002°39'  
2017-Dec-08 03:53N 42°34' E 009°48'7 8.4
2017-Dec-08 03:05N 42°40' E 009°51'21 8.1
2017-Dec-08 00:28N 43°01' E 009°60'4 7.9
2017-Dec-08 00:00N 43°04' E 010°01'4 8.0
2017-Dec-07 23:30N 43°08' E 010°03'4 8.1
2017-Dec-07 23:00N 43°12' E 010°05'4 7.9
2017-Dec-07 22:30N 43°16' E 010°06'4 7.7
2017-Dec-07 22:00N 43°19' E 010°08'4 7.6
2017-Dec-07 21:30N 43°23' E 010°09'4 7.3
2017-Dec-07 20:57N 43°27' E 010°11'3 7.0
2017-Dec-07 20:30N 43°30' E 010°12'3 6.4
2017-Dec-07 20:00N 43°32' E 010°15'2 4.5
2017-Dec-07 19:28N 43°33' E 010°18'0 0.0
2017-Dec-07 18:58N 43°33' E 010°18'0 0.0
2017-Dec-07 18:25N 43°33' E 010°18'0 0.0
2017-Dec-07 17:58N 43°33' E 010°18'0 0.0
2017-Dec-07 17:25N 43°33' E 010°18'0 0.0
2017-Dec-07 16:58N 43°33' E 010°18'0 0.0
2017-Dec-07 16:28N 43°33' E 010°18'0 0.0
2017-Dec-07 15:58N 43°33' E 010°18'0 0.0
2017-Dec-07 15:28N 43°33' E 010°18'0 0.0
2017-Dec-07 14:49N 43°33' E 010°18'0 0.0
2017-Dec-07 14:28N 43°33' E 010°18'0 0.0
2017-Dec-07 13:58N 43°33' E 010°18'0 0.0
2017-Dec-07 13:25N 43°33' E 010°18'0 0.0
2017-Dec-07 12:58N 43°33' E 010°18'0 0.0
2017-Dec-07 12:22N 43°33' E 010°18'0 0.0
2017-Dec-07 11:52N 43°33' E 010°18'0 0.0
2017-Dec-07 11:28N 43°33' E 010°18'0 0.0
2017-Dec-07 10:55N 43°33' E 010°18'0 0.0
2017-Dec-07 10:28N 43°33' E 010°18'0 0.0
2017-Dec-07 09:58N 43°33' E 010°18'0 0.0
2017-Dec-07 09:28N 43°33' E 010°18'0 0.0
2017-Dec-07 08:58N 43°33' E 010°18'0 0.0
2017-Dec-07 08:25N 43°33' E 010°18'0 0.0
2017-Dec-07 07:58N 43°33' E 010°18'0 0.0
2017-Dec-07 07:28N 43°33' E 010°18'0 0.0
2017-Dec-07 06:58N 43°33' E 010°18'0 0.0
2017-Dec-07 06:25N 43°33' E 010°18'0 0.0
2017-Dec-07 05:58N 43°33' E 010°18'0 0.0
2017-Dec-07 05:28N 43°33' E 010°18'0 0.0
2017-Dec-07 04:58N 43°33' E 010°18'0 0.0
2017-Dec-07 04:19N 43°33' E 010°18'0 0.0
2017-Dec-07 03:58N 43°33' E 010°18'0 0.0
2017-Dec-07 03:28N 43°33' E 010°18'0 0.0
2017-Dec-07 02:58N 43°33' E 010°18'0 0.0
2017-Dec-07 02:28N 43°33' E 010°18'0 0.0
2017-Dec-07 01:58N 43°33' E 010°18'0 0.0
2017-Dec-07 01:28N 43°33' E 010°18'0 0.0
2017-Dec-07 00:58N 43°33' E 010°18'0 0.0
2017-Dec-07 00:28N 43°33' E 010°18'0 0.0
2017-Dec-06 23:58N 43°33' E 010°18'0 0.0
2017-Dec-06 23:28N 43°33' E 010°18'0 0.0
2017-Dec-06 22:58N 43°33' E 010°18'0 0.0
2017-Dec-06 22:25N 43°33' E 010°18'0 0.0
2017-Dec-06 21:58N 43°33' E 010°18'0 0.0
2017-Dec-06 21:28N 43°33' E 010°18'0 0.0
2017-Dec-06 20:52N 43°33' E 010°18'  
Track history (hours):
 
Tides and Currents Weather Stations Pressure Air Temp Water Temp Dewpoint Dewpoint Depression Visibility Wind Speed Wind Dir Waves Ship Positions

Eilsum

Last reported at 2017-Dec-15 01:00 UTC. Time now 2017-Dec-17 06:38 UTC.
Position N 37°30' W 000°10'.

Length 81 m; draft 3.3 m.

Type: Cargo ship. MMSI: 304010439.

Date/timePositionNaut miles runAvg speedWind from/ knotsBaromVisibWave heightAir tempDewpointWater temp
2017-Dec-15 01:00N 37°30' W 000°10'4 7.5
2017-Dec-15 00:30N 37°30' W 000°15'35 0.8
2017-Dec-13 06:16N 37°34' W 000°59'2 3.2
2017-Dec-13 05:45N 37°33' W 000°59'2 4.6
2017-Dec-13 05:23N 37°31' W 000°58'2 5.7
2017-Dec-13 05:00N 37°32' W 000°55'3 5.7
2017-Dec-13 04:29N 37°32' W 000°51'3 5.5
2017-Dec-13 04:00N 37°32' W 000°48'3 5.9
2017-Dec-13 03:30N 37°32' W 000°44'3 5.3
2017-Dec-13 03:00N 37°32' W 000°41'3 5.8
2017-Dec-13 02:28N 37°33' W 000°37'3 5.8
2017-Dec-13 02:00N 37°34' W 000°34'3 6.3
2017-Dec-13 01:30N 37°36' W 000°31'3 6.2
2017-Dec-13 01:00N 37°39' W 000°29'3 6.2
2017-Dec-13 00:30N 37°42' W 000°27'3 6.1
2017-Dec-13 00:00N 37°44' W 000°25'186 6.0
2017-Dec-11 17:01N 39°47' E 002°34'1 3.4
2017-Dec-11 16:38N 39°47' E 002°36'1 3.5
2017-Dec-11 16:24N 39°48' E 002°37'1 3.2
2017-Dec-11 16:00N 39°49' E 002°38'2 3.3
2017-Dec-11 15:30N 39°50' E 002°39'  
2017-Dec-08 03:53N 42°34' E 009°48'7 8.4
2017-Dec-08 03:05N 42°40' E 009°51'21 8.1
2017-Dec-08 00:28N 43°01' E 009°60'4 7.9
2017-Dec-08 00:00N 43°04' E 010°01'4 8.0
2017-Dec-07 23:30N 43°08' E 010°03'4 8.1
2017-Dec-07 23:00N 43°12' E 010°05'4 7.9
2017-Dec-07 22:30N 43°16' E 010°06'4 7.7
2017-Dec-07 22:00N 43°19' E 010°08'4 7.6
2017-Dec-07 21:30N 43°23' E 010°09'4 7.3
2017-Dec-07 20:57N 43°27' E 010°11'3 7.0
2017-Dec-07 20:30N 43°30' E 010°12'3 6.4
2017-Dec-07 20:00N 43°32' E 010°15'2 4.5
2017-Dec-07 19:28N 43°33' E 010°18'0 0.0
2017-Dec-07 18:58N 43°33' E 010°18'0 0.0
2017-Dec-07 18:25N 43°33' E 010°18'0 0.0
2017-Dec-07 17:58N 43°33' E 010°18'0 0.0
2017-Dec-07 17:25N 43°33' E 010°18'0 0.0
2017-Dec-07 16:58N 43°33' E 010°18'0 0.0
2017-Dec-07 16:28N 43°33' E 010°18'0 0.0
2017-Dec-07 15:58N 43°33' E 010°18'0 0.0
2017-Dec-07 15:28N 43°33' E 010°18'0 0.0
2017-Dec-07 14:49N 43°33' E 010°18'0 0.0
2017-Dec-07 14:28N 43°33' E 010°18'0 0.0
2017-Dec-07 13:58N 43°33' E 010°18'0 0.0
2017-Dec-07 13:25N 43°33' E 010°18'0 0.0
2017-Dec-07 12:58N 43°33' E 010°18'0 0.0
2017-Dec-07 12:22N 43°33' E 010°18'0 0.0
2017-Dec-07 11:52N 43°33' E 010°18'0 0.0
2017-Dec-07 11:28N 43°33' E 010°18'0 0.0
2017-Dec-07 10:55N 43°33' E 010°18'0 0.0
2017-Dec-07 10:28N 43°33' E 010°18'0 0.0
2017-Dec-07 09:58N 43°33' E 010°18'0 0.0
2017-Dec-07 09:28N 43°33' E 010°18'0 0.0
2017-Dec-07 08:58N 43°33' E 010°18'0 0.0
2017-Dec-07 08:25N 43°33' E 010°18'0 0.0
2017-Dec-07 07:58N 43°33' E 010°18'0 0.0
2017-Dec-07 07:28N 43°33' E 010°18'0 0.0
2017-Dec-07 06:58N 43°33' E 010°18'0 0.0
2017-Dec-07 06:25N 43°33' E 010°18'0 0.0
2017-Dec-07 05:58N 43°33' E 010°18'0 0.0
2017-Dec-07 05:28N 43°33' E 010°18'0 0.0
2017-Dec-07 04:58N 43°33' E 010°18'0 0.0
2017-Dec-07 04:19N 43°33' E 010°18'0 0.0
2017-Dec-07 03:58N 43°33' E 010°18'0 0.0
2017-Dec-07 03:28N 43°33' E 010°18'0 0.0
2017-Dec-07 02:58N 43°33' E 010°18'0 0.0
2017-Dec-07 02:28N 43°33' E 010°18'0 0.0
2017-Dec-07 01:58N 43°33' E 010°18'0 0.0
2017-Dec-07 01:28N 43°33' E 010°18'0 0.0
2017-Dec-07 00:58N 43°33' E 010°18'0 0.0
2017-Dec-07 00:28N 43°33' E 010°18'0 0.0
2017-Dec-06 23:58N 43°33' E 010°18'0 0.0
2017-Dec-06 23:28N 43°33' E 010°18'0 0.0
2017-Dec-06 22:58N 43°33' E 010°18'0 0.0
2017-Dec-06 22:25N 43°33' E 010°18'0 0.0
2017-Dec-06 21:58N 43°33' E 010°18'0 0.0
2017-Dec-06 21:28N 43°33' E 010°18'0 0.0
2017-Dec-06 20:52N 43°33' E 010°18'  

Dump ship's entire track history